Field WX: KFPK 241015Z AUTO 00000KT 10SM BKN070 OVC085 M05/M08 A3021 RMK AO2 T10491085 Decode METAR

YouTube! Facebook

JSN Epic is designed by JoomlaShine.com